createdAt,value
2022-08-12T00:00:57.000Z,29.77
2022-08-12T00:03:25.000Z,33.5
2022-08-12T00:05:52.000Z,28.73
2022-08-12T00:08:17.000Z,28.73
2022-08-12T00:10:43.000Z,28.73
2022-08-12T00:10:50.000Z,28.5
2022-08-12T00:10:55.000Z,34.83
2022-08-12T00:13:09.000Z,34.83
2022-08-12T00:13:14.000Z,27.37
2022-08-12T00:15:34.000Z,30.93
2022-08-12T00:18:01.000Z,25.12
2022-08-12T00:20:27.000Z,28.8
2022-08-12T00:22:53.000Z,23.6
2022-08-12T00:25:18.000Z,23.97
2022-08-12T00:27:45.000Z,23.97
2022-08-12T00:27:50.000Z,28.77
2022-08-12T00:30:16.000Z,26.37
2022-08-12T00:32:38.000Z,26.65
2022-08-12T00:35:03.000Z,26.65
2022-08-12T00:37:29.000Z,26.65
2022-08-12T00:37:34.000Z,55.4
2022-08-12T00:37:39.000Z,64.87
2022-08-12T00:39:55.000Z,54.7
2022-08-12T00:42:22.000Z,36.23
2022-08-12T00:44:48.000Z,35.65
2022-08-12T00:47:13.000Z,28.12
2022-08-12T00:49:40.000Z,28.12
2022-08-12T00:52:06.000Z,28.12
2022-08-12T00:52:11.000Z,31.05
2022-08-12T00:52:17.000Z,30.77
2022-08-12T00:54:32.000Z,26.15
2022-08-12T00:56:57.000Z,23.03
2022-08-12T00:59:24.000Z,22.87
2022-08-12T01:01:51.000Z,25.75
2022-08-12T01:04:16.000Z,25.75
2022-08-12T01:04:21.000Z,33.38
2022-08-12T01:06:43.000Z,28.07
2022-08-12T01:09:08.000Z,28.07
2022-08-12T01:09:13.000Z,26.8
2022-08-12T01:11:34.000Z,31.47
2022-08-12T01:14:01.000Z,29
2022-08-12T01:16:28.000Z,26.75
2022-08-12T01:18:55.000Z,32.15
2022-08-12T01:21:22.000Z,28.12
2022-08-12T01:23:47.000Z,30.23
2022-08-12T01:26:15.000Z,32.33
2022-08-12T01:28:42.000Z,29.95
2022-08-12T01:31:08.000Z,30.43
2022-08-12T01:33:34.000Z,30.43
2022-08-12T01:33:40.000Z,32.83
2022-08-12T01:36:01.000Z,28.33
2022-08-12T01:40:52.000Z,32.73
2022-08-12T01:43:17.000Z,32.42
2022-08-12T01:45:43.000Z,36.3
2022-08-12T01:48:12.000Z,38.35
2022-08-12T01:50:37.000Z,35.58
2022-08-12T01:53:04.000Z,38.2
2022-08-12T01:55:30.000Z,36.42
2022-08-12T01:57:56.000Z,34.78
2022-08-12T02:00:24.000Z,32.73
2022-08-12T02:02:48.000Z,32.73
2022-08-12T02:02:53.000Z,35.1
2022-08-12T02:05:15.000Z,39.05
2022-08-12T02:07:40.000Z,36.68
2022-08-12T02:10:07.000Z,37.03
2022-08-12T02:12:33.000Z,37.03
2022-08-12T02:12:41.000Z,38.07
2022-08-12T02:14:58.000Z,39.27
2022-08-12T02:17:23.000Z,38.58
2022-08-12T02:19:49.000Z,38.58
2022-08-12T02:19:54.000Z,39.95
2022-08-12T02:22:15.000Z,40.63
2022-08-12T02:24:46.000Z,42.67
2022-08-12T02:27:11.000Z,44.25
2022-08-12T02:29:36.000Z,34.8
2022-08-12T02:32:01.000Z,36.1
2022-08-12T02:34:29.000Z,29.33
2022-08-12T02:36:56.000Z,27.17
2022-08-12T02:39:20.000Z,29.17
2022-08-12T02:44:13.000Z,29.15
2022-08-12T02:46:38.000Z,25.63
2022-08-12T02:49:05.000Z,28.2
2022-08-12T02:51:32.000Z,23.32
2022-08-12T02:53:57.000Z,22.13
2022-08-12T02:56:23.000Z,22.13
2022-08-12T02:56:28.000Z,28.6
2022-08-12T02:58:49.000Z,26.77
2022-08-12T03:01:17.000Z,22.2
2022-08-12T03:03:45.000Z,21.17
2022-08-12T03:06:11.000Z,20.3
2022-08-12T03:08:40.000Z,18.62
2022-08-12T03:11:07.000Z,18.62
2022-08-12T03:11:16.000Z,29.4
2022-08-12T03:13:36.000Z,19.75
2022-08-12T03:16:03.000Z,18.92
2022-08-12T03:18:30.000Z,18.4
2022-08-12T03:20:56.000Z,20.27
2022-08-12T03:23:22.000Z,16.93
2022-08-12T03:25:50.000Z,16.93
2022-08-12T03:25:55.000Z,18.55
2022-08-12T03:28:16.000Z,19.35
2022-08-12T03:30:43.000Z,19.35
2022-08-12T03:30:49.000Z,17.37
2022-08-12T03:33:10.000Z,17.37
2022-08-12T03:33:15.000Z,16.12
2022-08-12T03:35:40.000Z,22.37
2022-08-12T03:38:06.000Z,18.43
2022-08-12T03:40:31.000Z,21.13
2022-08-12T03:42:58.000Z,21.85
2022-08-12T03:45:28.000Z,22
2022-08-12T03:47:54.000Z,22.25
2022-08-12T03:50:21.000Z,26.35
2022-08-12T03:52:48.000Z,26.73
2022-08-12T03:55:13.000Z,25.1
2022-08-12T03:57:40.000Z,31.57
2022-08-12T04:00:12.000Z,31.33
2022-08-12T04:02:33.000Z,31.33
2022-08-12T04:02:38.000Z,32.27
2022-08-12T04:04:58.000Z,32.23
2022-08-12T04:09:56.000Z,37.2
2022-08-12T04:12:28.000Z,36.35
2022-08-12T04:14:57.000Z,36.35
2022-08-12T04:15:04.000Z,38.58
2022-08-12T04:17:24.000Z,40.15
2022-08-12T04:19:52.000Z,43.02
2022-08-12T04:22:20.000Z,54.73
2022-08-12T04:24:51.000Z,55.8
2022-08-12T04:27:18.000Z,44.18
2022-08-12T04:29:44.000Z,50.6
2022-08-12T04:32:14.000Z,50.6
2022-08-12T04:32:19.000Z,50.98
2022-08-12T04:34:40.000Z,61.18
2022-08-12T04:37:06.000Z,48.87
2022-08-12T04:39:32.000Z,56.65
2022-08-12T04:41:58.000Z,55.43
2022-08-12T04:44:25.000Z,52.23
2022-08-12T04:46:55.000Z,60.35
2022-08-12T04:49:21.000Z,62.87
2022-08-12T04:51:46.000Z,61.23
2022-08-12T04:54:15.000Z,61.23
2022-08-12T04:54:25.000Z,59.18
2022-08-12T04:56:45.000Z,60.8
2022-08-12T04:59:13.000Z,60.8
2022-08-12T04:59:17.000Z,60.92
2022-08-12T05:01:39.000Z,56.68
2022-08-12T05:04:05.000Z,54.83
2022-08-12T05:06:31.000Z,52.27
2022-08-12T05:08:58.000Z,52.37
2022-08-12T05:11:24.000Z,57.13
2022-08-12T05:13:52.000Z,52.62
2022-08-12T05:16:19.000Z,50.38
2022-08-12T05:18:46.000Z,50.38
2022-08-12T05:18:52.000Z,48.2
2022-08-12T05:26:12.000Z,33.33
2022-08-12T05:28:39.000Z,30.08
2022-08-12T05:31:04.000Z,33
2022-08-12T05:33:31.000Z,37.33
2022-08-12T05:35:57.000Z,32.85
2022-08-12T05:38:28.000Z,32.6
2022-08-12T05:40:54.000Z,32.1
2022-08-12T05:43:20.000Z,31.48
2022-08-12T05:45:48.000Z,33.88
2022-08-12T05:48:14.000Z,31.95
2022-08-12T05:50:41.000Z,30.93
2022-08-12T05:53:08.000Z,29.67
2022-08-12T05:55:33.000Z,30.88
2022-08-12T05:58:02.000Z,32
2022-08-12T06:00:30.000Z,30.02
2022-08-12T06:02:56.000Z,29.7
2022-08-12T06:05:23.000Z,30.12
2022-08-12T06:07:48.000Z,34.53
2022-08-12T06:10:14.000Z,34.53
2022-08-12T06:12:39.000Z,34.53
2022-08-12T06:12:45.000Z,32.95
2022-08-12T06:12:50.000Z,31.3
2022-08-12T06:15:06.000Z,30.6
2022-08-12T06:17:32.000Z,33.45
2022-08-12T06:19:57.000Z,33.53
2022-08-12T06:22:26.000Z,33.53
2022-08-12T06:22:32.000Z,33.1
2022-08-12T06:24:52.000Z,31.37
2022-08-12T06:27:18.000Z,27.77
2022-08-12T06:29:46.000Z,29.37
2022-08-12T06:32:11.000Z,29.37
2022-08-12T06:32:16.000Z,34.33
2022-08-12T06:34:37.000Z,34.33
2022-08-12T06:37:03.000Z,34.33
2022-08-12T06:37:12.000Z,28
2022-08-12T06:39:29.000Z,28
2022-08-12T06:39:35.000Z,28.92
2022-08-12T06:39:41.000Z,26.75
2022-08-12T06:41:55.000Z,25.08
2022-08-12T06:44:23.000Z,25.08
2022-08-12T06:44:30.000Z,25.65
2022-08-12T06:46:51.000Z,27.42
2022-08-12T06:49:20.000Z,27.02
2022-08-12T06:51:45.000Z,28.75
2022-08-12T06:54:13.000Z,28.75
2022-08-12T06:56:43.000Z,28.75
2022-08-12T06:56:53.000Z,28.23
2022-08-12T06:57:04.000Z,25.77
2022-08-12T06:59:09.000Z,23.57
2022-08-12T07:01:38.000Z,24.35
2022-08-12T07:04:01.000Z,24.35
2022-08-12T07:06:26.000Z,24.35
2022-08-12T07:06:32.000Z,28.67
2022-08-12T07:06:37.000Z,22.63
2022-08-12T07:08:53.000Z,26.7
2022-08-12T07:11:19.000Z,22.8
2022-08-12T07:13:45.000Z,21.27
2022-08-12T07:16:14.000Z,21.27
2022-08-12T07:16:20.000Z,20.15
2022-08-12T07:18:38.000Z,21.65
2022-08-12T07:21:05.000Z,26.33
2022-08-12T07:23:31.000Z,29.82
2022-08-12T07:25:57.000Z,38.25
2022-08-12T07:28:25.000Z,46.8
2022-08-12T07:30:50.000Z,36.47
2022-08-12T07:33:19.000Z,43.37
2022-08-12T07:35:47.000Z,39.03
2022-08-12T07:38:13.000Z,41.28
2022-08-12T07:40:39.000Z,41.28
2022-08-12T07:40:46.000Z,36.08
2022-08-12T07:43:07.000Z,43.52
2022-08-12T07:45:36.000Z,35.25
2022-08-12T07:48:02.000Z,37.47
2022-08-12T07:52:59.000Z,36.13
2022-08-12T07:55:25.000Z,36.25
2022-08-12T07:57:55.000Z,37.73
2022-08-12T08:00:23.000Z,32.28
2022-08-12T08:02:50.000Z,32.5
2022-08-12T08:05:19.000Z,25.72
2022-08-12T08:07:48.000Z,24.97
2022-08-12T08:10:17.000Z,21.93
2022-08-12T08:12:44.000Z,23.1
2022-08-12T08:15:12.000Z,23.03
2022-08-12T08:17:37.000Z,19.03
2022-08-12T08:20:04.000Z,21.68
2022-08-12T08:22:33.000Z,25.97
2022-08-12T08:24:59.000Z,25.97
2022-08-12T08:27:28.000Z,25.97
2022-08-12T08:27:37.000Z,27.67
2022-08-12T08:27:42.000Z,23.47
2022-08-12T08:29:55.000Z,23.67
2022-08-12T08:32:28.000Z,27.65
2022-08-12T08:34:54.000Z,27.07
2022-08-12T08:37:23.000Z,22.07
2022-08-12T08:39:53.000Z,22.07
2022-08-12T08:39:59.000Z,20.48
2022-08-12T08:42:18.000Z,19.7
2022-08-12T08:47:14.000Z,18.93
2022-08-12T08:49:39.000Z,15.6
2022-08-12T08:52:05.000Z,16.67
2022-08-12T08:54:30.000Z,16.05
2022-08-12T08:56:56.000Z,13.72
2022-08-12T08:59:22.000Z,14.13
2022-08-12T09:01:53.000Z,12.88
2022-08-12T09:04:18.000Z,11.57
2022-08-12T09:06:44.000Z,11.57
2022-08-12T09:09:11.000Z,11.57
2022-08-12T09:09:19.000Z,13.35
2022-08-12T09:11:37.000Z,13.35
2022-08-12T09:14:05.000Z,13.35
2022-08-12T09:14:26.000Z,11.2
2022-08-12T09:14:26.000Z,11.55
2022-08-12T09:14:36.000Z,17.23
2022-08-12T09:16:32.000Z,15.83
2022-08-12T09:18:59.000Z,15.83
2022-08-12T09:19:06.000Z,13.5
2022-08-12T09:21:28.000Z,13.5
2022-08-12T09:26:26.000Z,13.7
2022-08-12T09:28:58.000Z,13.7
2022-08-12T09:31:26.000Z,13.7
2022-08-12T09:31:26.000Z,13.7
2022-08-12T09:31:36.000Z,13.18
2022-08-12T09:33:51.000Z,14.75
2022-08-12T09:36:22.000Z,14.85
2022-08-12T09:38:51.000Z,17.17
2022-08-12T09:41:17.000Z,14.45
2022-08-12T09:43:44.000Z,17.35
2022-08-12T09:46:09.000Z,15.38
2022-08-12T09:48:35.000Z,13.98
2022-08-12T09:51:00.000Z,13.67
2022-08-12T09:53:27.000Z,14.38
2022-08-12T09:55:53.000Z,15.45
2022-08-12T09:58:19.000Z,17.67
2022-08-12T10:00:49.000Z,23.4
2022-08-12T10:03:14.000Z,27.5
2022-08-12T10:05:41.000Z,26.2
2022-08-12T10:08:06.000Z,26.12
2022-08-12T10:10:32.000Z,20.6
2022-08-12T10:13:00.000Z,20.6
2022-08-12T10:15:47.000Z,20.1
2022-08-12T10:15:47.000Z,20.1
2022-08-12T10:15:47.000Z,20.1
2022-08-12T10:17:52.000Z,18.17
2022-08-12T10:20:21.000Z,19.27
2022-08-12T10:22:50.000Z,16.4
2022-08-12T10:25:18.000Z,17.87
2022-08-12T10:27:46.000Z,17.87
2022-08-12T10:30:38.000Z,17.42
2022-08-12T10:30:38.000Z,17.87
2022-08-12T10:30:38.000Z,17.42
2022-08-12T10:32:43.000Z,16.2
2022-08-12T10:35:11.000Z,15.3
2022-08-12T10:37:37.000Z,15.85
2022-08-12T10:40:04.000Z,15.85
2022-08-12T10:42:29.000Z,15.85
2022-08-12T10:42:36.000Z,18.45
2022-08-12T10:44:58.000Z,18.45
2022-08-12T10:45:05.000Z,17.35
2022-08-12T10:47:25.000Z,17.35
2022-08-12T10:49:50.000Z,17.35
2022-08-12T10:50:11.000Z,22.5
2022-08-12T10:50:22.000Z,20.37
2022-08-12T10:50:22.000Z,20.37
2022-08-12T10:52:20.000Z,23.32
2022-08-12T10:54:48.000Z,23.4
2022-08-12T10:57:14.000Z,23.9
2022-08-12T10:59:40.000Z,23.9
2022-08-12T11:02:07.000Z,23.9
2022-08-12T11:02:07.000Z,23.9
2022-08-12T11:02:07.000Z,23.9
2022-08-12T11:04:40.000Z,29.07
2022-08-12T11:07:06.000Z,29.87
2022-08-12T11:09:32.000Z,33.1
2022-08-12T11:11:57.000Z,36.13
2022-08-12T11:14:25.000Z,35.5
2022-08-12T11:16:51.000Z,37.5
2022-08-12T11:19:17.000Z,37.77
2022-08-12T11:21:43.000Z,39.07
2022-08-12T11:24:09.000Z,39.07
2022-08-12T11:26:38.000Z,39.07
2022-08-12T11:26:44.000Z,38
2022-08-12T11:26:50.000Z,38.88
2022-08-12T11:29:03.000Z,38.92
2022-08-12T11:31:34.000Z,38.92
2022-08-12T11:34:00.000Z,38.92
2022-08-12T11:34:21.000Z,41.68
2022-08-12T11:34:21.000Z,41.68
2022-08-12T11:36:29.000Z,44.67
2022-08-12T11:38:58.000Z,40.23
2022-08-12T11:41:23.000Z,38.7
2022-08-12T11:43:52.000Z,39.53
2022-08-12T11:46:19.000Z,40.83
2022-08-12T11:48:48.000Z,42.13
2022-08-12T11:51:18.000Z,34.92
2022-08-12T11:53:40.000Z,36.75
2022-08-12T11:56:07.000Z,37.7
2022-08-12T12:01:06.000Z,39.87
2022-08-12T12:03:43.000Z,37.95
2022-08-12T12:03:43.000Z,37.95
2022-08-12T12:03:55.000Z,40.15
2022-08-12T12:05:58.000Z,37.35
2022-08-12T12:08:27.000Z,34.53
2022-08-12T12:10:55.000Z,34.53
2022-08-12T12:11:03.000Z,31.25
2022-08-12T12:13:21.000Z,31.25
2022-08-12T12:15:46.000Z,31.25
2022-08-12T12:15:56.000Z,34.03
2022-08-12T12:18:12.000Z,34.03
2022-08-12T12:20:38.000Z,34.03
2022-08-12T12:20:49.000Z,35.63
2022-08-12T12:20:58.000Z,31.82
2022-08-12T12:23:05.000Z,31.82
2022-08-12T12:26:05.000Z,32.5
2022-08-12T12:26:05.000Z,32.5
2022-08-12T12:26:05.000Z,32.5
2022-08-12T12:26:05.000Z,31.82
2022-08-12T12:27:57.000Z,30.82
2022-08-12T12:30:25.000Z,30.6
2022-08-12T12:32:51.000Z,30.9
2022-08-12T12:35:18.000Z,28.07
2022-08-12T12:37:45.000Z,28.07
2022-08-12T12:40:12.000Z,28.07
2022-08-12T12:40:19.000Z,28.7
2022-08-12T12:42:41.000Z,28.7
2022-08-12T12:45:18.000Z,28.7
2022-08-12T12:45:18.000Z,28.65
2022-08-12T12:45:28.000Z,28.98
2022-08-12T12:45:39.000Z,28.83
2022-08-12T12:47:34.000Z,25.45
2022-08-12T12:50:04.000Z,25.37
2022-08-12T12:52:29.000Z,25.37
2022-08-12T12:52:37.000Z,26.93
2022-08-12T12:54:56.000Z,26.93
2022-08-12T12:55:04.000Z,25.73
2022-08-12T12:57:22.000Z,22.52
2022-08-12T12:59:50.000Z,22.52
2022-08-12T13:02:29.000Z,23.22
2022-08-12T13:02:29.000Z,23.22
2022-08-12T13:02:40.000Z,25.75
2022-08-12T13:04:45.000Z,25.1
2022-08-12T13:07:15.000Z,25.2
2022-08-12T13:09:41.000Z,25.2
2022-08-12T13:12:11.000Z,25.2
2022-08-12T13:12:21.000Z,22.9
2022-08-12T13:12:29.000Z,25.85
2022-08-12T13:14:36.000Z,25.85
2022-08-12T13:17:03.000Z,25.85
2022-08-12T13:17:14.000Z,25.77
2022-08-12T13:17:22.000Z,23.55
2022-08-12T13:19:29.000Z,23.55
2022-08-12T13:21:57.000Z,23.55
2022-08-12T13:22:08.000Z,25.8
2022-08-12T13:22:18.000Z,24.4
2022-08-12T13:24:24.000Z,25.43
2022-08-12T13:26:52.000Z,33.2
2022-08-12T13:29:18.000Z,28.67
2022-08-12T13:31:45.000Z,27.65
2022-08-12T13:34:11.000Z,27.65
2022-08-12T13:36:38.000Z,27.65
2022-08-12T13:36:48.000Z,30.23
2022-08-12T13:36:58.000Z,29.87
2022-08-12T13:39:08.000Z,29.87
2022-08-12T13:39:17.000Z,32.5
2022-08-12T13:41:39.000Z,31.77
2022-08-12T13:44:09.000Z,31.77
2022-08-12T13:44:18.000Z,29.8
2022-08-12T13:46:36.000Z,29.8
2022-08-12T13:49:03.000Z,29.8
2022-08-12T13:49:11.000Z,27.43
2022-08-12T13:51:29.000Z,27.43
2022-08-12T13:53:56.000Z,27.43
2022-08-12T13:54:06.000Z,30.95
2022-08-12T13:54:17.000Z,27.75
2022-08-12T13:54:25.000Z,28.77
2022-08-12T13:56:23.000Z,27.57
2022-08-12T13:58:49.000Z,27.57
2022-08-12T14:03:54.000Z,27.57
2022-08-12T14:04:03.000Z,31.45
2022-08-12T14:04:13.000Z,29.12
2022-08-12T14:06:23.000Z,31.45
2022-08-12T14:08:55.000Z,30.62
2022-08-12T14:11:25.000Z,36.83
2022-08-12T14:13:56.000Z,40.55
2022-08-12T14:16:25.000Z,41.68
2022-08-12T14:18:53.000Z,38.38
2022-08-12T14:21:18.000Z,35.63
2022-08-12T14:23:48.000Z,40.73
2022-08-12T14:26:13.000Z,35.48
2022-08-12T14:29:30.000Z,32.1
2022-08-12T14:33:39.000Z,37
2022-08-12T14:36:07.000Z,35.8
2022-08-12T14:38:36.000Z,33.75
2022-08-12T14:41:03.000Z,33.75
2022-08-12T14:41:10.000Z,31.48
2022-08-12T14:43:29.000Z,30.23
2022-08-12T14:45:57.000Z,30.23
2022-08-12T14:48:26.000Z,30.23
2022-08-12T14:48:34.000Z,40.12
2022-08-12T14:48:44.000Z,29.3
2022-08-12T14:50:53.000Z,34.78
2022-08-12T14:55:56.000Z,28.23
2022-08-12T14:55:56.000Z,28.23
2022-08-12T14:58:12.000Z,32.83
2022-08-12T15:00:41.000Z,32.03
2022-08-12T15:03:08.000Z,32.03
2022-08-12T15:03:16.000Z,31.05
2022-08-12T15:05:37.000Z,29.15
2022-08-12T15:08:01.000Z,29.15
2022-08-12T15:12:59.000Z,29.15
2022-08-12T15:13:09.000Z,32.95
2022-08-12T15:13:16.000Z,31.42
2022-08-12T15:15:26.000Z,30.8
2022-08-12T15:17:51.000Z,30.8
2022-08-12T15:20:32.000Z,32.93
2022-08-12T15:20:32.000Z,30.8
2022-08-12T15:20:44.000Z,36.53
2022-08-12T15:22:46.000Z,35.8
2022-08-12T15:27:50.000Z,35.8
2022-08-12T15:30:19.000Z,35.8
2022-08-12T15:30:30.000Z,34.33
2022-08-12T15:30:40.000Z,37.5
2022-08-12T15:32:46.000Z,43.13
2022-08-12T15:35:13.000Z,43.75
2022-08-12T15:37:39.000Z,43.45
2022-08-12T15:40:05.000Z,43.45
2022-08-12T15:40:15.000Z,43.48
2022-08-12T15:42:31.000Z,43.48
2022-08-12T15:44:58.000Z,43.48
2022-08-12T15:45:19.000Z,39.18
2022-08-12T15:45:19.000Z,39.18
2022-08-12T15:47:29.000Z,38.03
2022-08-12T15:49:56.000Z,38.28
2022-08-12T15:52:26.000Z,36.47
2022-08-12T15:54:52.000Z,35.83
2022-08-12T15:57:18.000Z,35.83
2022-08-12T15:59:56.000Z,40.33
2022-08-12T15:59:56.000Z,35.83
2022-08-12T16:00:10.000Z,39.23
2022-08-12T16:02:11.000Z,41.05
2022-08-12T16:04:37.000Z,38.1
2022-08-12T16:07:04.000Z,40.17
2022-08-12T16:09:31.000Z,40.17
2022-08-12T16:11:57.000Z,40.17
2022-08-12T16:12:08.000Z,36.25
2022-08-12T16:12:19.000Z,39.08
2022-08-12T16:14:25.000Z,38.53
2022-08-12T16:16:48.000Z,39.85
2022-08-12T16:19:14.000Z,38.3
2022-08-12T16:21:40.000Z,38.3
2022-08-12T16:24:06.000Z,38.3
2022-08-12T16:24:16.000Z,40.4
2022-08-12T16:24:25.000Z,35.1
2022-08-12T16:26:32.000Z,35.1
2022-08-12T16:26:42.000Z,40.08
2022-08-12T16:28:58.000Z,40.08
2022-08-12T16:31:23.000Z,40.08
2022-08-12T16:31:34.000Z,37.2
2022-08-12T16:31:41.000Z,39.33
2022-08-12T16:33:50.000Z,37.9
2022-08-12T16:36:16.000Z,37.9
2022-08-12T16:36:26.000Z,33.48
2022-08-12T16:38:41.000Z,36.77
2022-08-12T16:41:07.000Z,36.77
2022-08-12T16:41:16.000Z,40.37
2022-08-12T16:43:33.000Z,36.08
2022-08-12T16:45:59.000Z,37.03
2022-08-12T16:48:25.000Z,37.03
2022-08-12T16:50:50.000Z,37.03
2022-08-12T16:50:58.000Z,37.9
2022-08-12T16:53:17.000Z,37.9
2022-08-12T16:55:42.000Z,37.9
2022-08-12T16:55:54.000Z,38.53
2022-08-12T16:56:01.000Z,35.92
2022-08-12T16:56:11.000Z,39.05
2022-08-12T16:58:08.000Z,36.58
2022-08-12T17:00:35.000Z,36.58
2022-08-12T17:03:00.000Z,36.58
2022-08-12T17:03:10.000Z,39.58
2022-08-12T17:05:27.000Z,39.58
2022-08-12T17:07:53.000Z,39.58
2022-08-12T17:08:01.000Z,38.78
2022-08-12T17:08:10.000Z,38.9
2022-08-12T17:10:18.000Z,38.9
2022-08-12T17:12:46.000Z,38.9
2022-08-12T17:12:54.000Z,39.83
2022-08-12T17:15:12.000Z,39.83
2022-08-12T17:17:36.000Z,39.83
2022-08-12T17:17:45.000Z,39.9
2022-08-12T17:20:05.000Z,39.9
2022-08-12T17:22:29.000Z,39.9
2022-08-12T17:22:40.000Z,41.88
2022-08-12T17:22:48.000Z,42.2
2022-08-12T17:24:55.000Z,42.2
2022-08-12T17:25:04.000Z,41.42
2022-08-12T17:27:22.000Z,41.42
2022-08-12T17:27:32.000Z,45.87
2022-08-12T17:29:47.000Z,45.87
2022-08-12T17:32:14.000Z,45.87
2022-08-12T17:32:24.000Z,41.88
2022-08-12T17:32:34.000Z,45.12
2022-08-12T17:32:42.000Z,50.12
2022-08-12T17:34:40.000Z,50.12
2022-08-12T17:34:48.000Z,47.7
2022-08-12T17:34:55.000Z,47.55
2022-08-12T17:35:05.000Z,47.62
2022-08-12T17:37:05.000Z,46.1
2022-08-12T17:39:30.000Z,48.45
2022-08-12T17:41:56.000Z,48.45
2022-08-12T17:44:24.000Z,48.45
2022-08-12T17:44:32.000Z,49.08
2022-08-12T17:44:38.000Z,51.43
2022-08-12T17:46:49.000Z,51.43
2022-08-12T17:49:15.000Z,51.43
2022-08-12T17:49:26.000Z,53.75
2022-08-12T17:49:26.000Z,53.75
2022-08-12T17:51:42.000Z,51.73
2022-08-12T17:54:07.000Z,51.93
2022-08-12T17:56:32.000Z,48.45
2022-08-12T17:58:59.000Z,54.6
2022-08-12T18:01:25.000Z,55.35
2022-08-12T18:03:51.000Z,55.35
2022-08-12T18:06:29.000Z,55.35
2022-08-12T18:06:40.000Z,48.33
2022-08-12T18:08:43.000Z,48.33
2022-08-12T18:11:09.000Z,48.33
2022-08-12T18:11:18.000Z,52.9
2022-08-12T18:11:39.000Z,59.03
2022-08-12T18:11:39.000Z,59.03
2022-08-12T18:13:35.000Z,55.7
2022-08-12T18:16:02.000Z,55.08
2022-08-12T18:18:26.000Z,50.2
2022-08-12T18:20:53.000Z,52.4
2022-08-12T18:23:18.000Z,55.5
2022-08-12T18:25:44.000Z,55.5
2022-08-12T18:28:10.000Z,55.5
2022-08-12T18:28:22.000Z,54.75
2022-08-12T18:28:34.000Z,54.93
2022-08-12T18:30:36.000Z,50.73
2022-08-12T18:33:02.000Z,46.98
2022-08-12T18:35:29.000Z,46.98
2022-08-12T18:38:02.000Z,46.98
2022-08-12T18:38:11.000Z,45.95
2022-08-12T18:40:20.000Z,45.95
2022-08-12T18:40:28.000Z,45.65
2022-08-12T18:40:35.000Z,40.75
2022-08-12T18:42:45.000Z,40.75
2022-08-12T18:45:12.000Z,40.75
2022-08-12T18:45:20.000Z,40.15
2022-08-12T18:47:37.000Z,40.15
2022-08-12T18:50:03.000Z,40.15
2022-08-12T18:50:15.000Z,45.48
2022-08-12T18:50:24.000Z,44.8
2022-08-12T18:50:34.000Z,44.85
2022-08-12T18:52:29.000Z,47.57
2022-08-12T18:54:55.000Z,48.78
2022-08-12T18:57:21.000Z,48.78
2022-08-12T18:59:57.000Z,51.63
2022-08-12T18:59:57.000Z,51.63
2022-08-12T19:00:11.000Z,49
2022-08-12T19:02:24.000Z,50.5
2022-08-12T19:04:42.000Z,44.25
2022-08-12T19:07:05.000Z,44.25
2022-08-12T19:07:15.000Z,40.78
2022-08-12T19:09:31.000Z,43.5
2022-08-12T19:11:57.000Z,43.5
2022-08-12T19:12:05.000Z,43.8
2022-08-12T19:14:24.000Z,43.8
2022-08-12T19:14:31.000Z,46.35
2022-08-12T19:16:49.000Z,43
2022-08-12T19:19:24.000Z,46.83
2022-08-12T19:21:42.000Z,46.83
2022-08-12T19:24:08.000Z,46.83
2022-08-12T19:24:18.000Z,47.97
2022-08-12T19:24:28.000Z,53.97
2022-08-12T19:26:34.000Z,51.83
2022-08-12T19:28:59.000Z,51.83
2022-08-12T19:29:07.000Z,52.58
2022-08-12T19:31:26.000Z,52.13
2022-08-12T19:33:52.000Z,52.13
2022-08-12T19:36:19.000Z,52.13
2022-08-12T19:36:29.000Z,49.33
2022-08-12T19:36:37.000Z,47.17
2022-08-12T19:38:44.000Z,47.73
2022-08-12T19:41:10.000Z,47.73
2022-08-12T19:43:46.000Z,54.8
2022-08-12T19:43:46.000Z,47.73
2022-08-12T19:43:46.000Z,54.8
2022-08-12T19:46:02.000Z,47.5
2022-08-12T19:48:27.000Z,50.95
2022-08-12T19:50:54.000Z,47.08
2022-08-12T19:53:20.000Z,47.08
2022-08-12T19:53:29.000Z,54.9
2022-08-12T19:55:45.000Z,54.9
2022-08-12T19:58:12.000Z,54.9
2022-08-12T19:58:23.000Z,49.33
2022-08-12T19:58:31.000Z,52.73
2022-08-12T20:00:38.000Z,52.73
2022-08-12T20:00:44.000Z,50.83
2022-08-12T20:03:03.000Z,50.83
2022-08-12T20:05:39.000Z,52.45
2022-08-12T20:05:39.000Z,52.45
2022-08-12T20:05:39.000Z,52.45
2022-08-12T20:07:54.000Z,60.43
2022-08-12T20:10:20.000Z,64.17
2022-08-12T20:12:46.000Z,66.67
2022-08-12T20:15:12.000Z,65.5
2022-08-12T20:17:38.000Z,64.77
2022-08-12T20:20:05.000Z,64.77
2022-08-12T20:22:30.000Z,64.77
2022-08-12T20:22:39.000Z,63.38
2022-08-12T20:24:57.000Z,63.38
2022-08-12T20:27:24.000Z,63.38
2022-08-12T20:27:34.000Z,67.43
2022-08-12T20:27:57.000Z,68.17
2022-08-12T20:27:57.000Z,68.17
2022-08-12T20:29:50.000Z,67.23
2022-08-12T20:32:15.000Z,64.4
2022-08-12T20:34:40.000Z,64.4
2022-08-12T20:34:47.000Z,71.53
2022-08-12T20:37:06.000Z,71.53
2022-08-12T20:37:16.000Z,68.25
2022-08-12T20:39:32.000Z,68.25
2022-08-12T20:41:58.000Z,68.25
2022-08-12T20:42:03.000Z,67.63
2022-08-12T20:42:10.000Z,73.63
2022-08-12T20:44:25.000Z,68.57
2022-08-12T20:46:51.000Z,67.87
2022-08-12T20:49:16.000Z,71.15
2022-08-12T20:51:42.000Z,68.97
2022-08-12T20:54:08.000Z,68.97
2022-08-12T20:54:13.000Z,67.8
2022-08-12T20:56:35.000Z,74.9
2022-08-12T20:59:00.000Z,74.9
2022-08-12T20:59:06.000Z,73.12
2022-08-12T21:01:27.000Z,69.85
2022-08-12T21:03:52.000Z,69.85
2022-08-12T21:06:19.000Z,69.85
2022-08-12T21:06:29.000Z,65.92
2022-08-12T21:06:36.000Z,62.9
2022-08-12T21:08:44.000Z,59.58
2022-08-12T21:11:10.000Z,56.63
2022-08-12T21:13:36.000Z,60.1
2022-08-12T21:16:02.000Z,60.1
2022-08-12T21:16:12.000Z,56.47
2022-08-12T21:18:29.000Z,56.47
2022-08-12T21:18:37.000Z,55.98
2022-08-12T21:20:54.000Z,55.98
2022-08-12T21:21:00.000Z,51
2022-08-12T21:23:19.000Z,53.7
2022-08-12T21:25:46.000Z,53.7
2022-08-12T21:25:53.000Z,51.57
2022-08-12T21:28:11.000Z,51.75
2022-08-12T21:30:37.000Z,50.57
2022-08-12T21:33:03.000Z,50.57
2022-08-12T21:35:29.000Z,50.57
2022-08-12T21:35:41.000Z,51.53
2022-08-12T21:35:50.000Z,50.93
2022-08-12T21:37:55.000Z,50.55
2022-08-12T21:40:23.000Z,54.25
2022-08-12T21:42:49.000Z,54.25
2022-08-12T21:42:56.000Z,48.48
2022-08-12T21:45:15.000Z,46.13
2022-08-12T21:47:42.000Z,46.13
2022-08-12T21:50:07.000Z,46.13
2022-08-12T21:50:16.000Z,40.07
2022-08-12T21:52:33.000Z,40.07
2022-08-12T21:54:59.000Z,40.07
2022-08-12T21:55:10.000Z,39.63
2022-08-12T21:55:23.000Z,34.15
2022-08-12T21:55:31.000Z,35.8
2022-08-12T21:57:26.000Z,31.82
2022-08-12T21:59:53.000Z,31.82
2022-08-12T21:59:59.000Z,34.7
2022-08-12T22:02:18.000Z,27.73
2022-08-12T22:04:45.000Z,27.73
2022-08-12T22:07:09.000Z,27.73
2022-08-12T22:07:20.000Z,30.7
2022-08-12T22:07:30.000Z,33.73
2022-08-12T22:09:35.000Z,32.7
2022-08-12T22:12:01.000Z,36.3
2022-08-12T22:14:27.000Z,34.6
2022-08-12T22:16:54.000Z,34.8
2022-08-12T22:19:19.000Z,38.45
2022-08-12T22:21:45.000Z,33.05
2022-08-12T22:24:11.000Z,33.05
2022-08-12T22:26:37.000Z,33.05
2022-08-12T22:26:47.000Z,36.63
2022-08-12T22:26:56.000Z,33.4
2022-08-12T22:29:02.000Z,33.4
2022-08-12T22:29:07.000Z,33.65
2022-08-12T22:31:28.000Z,33.65
2022-08-12T22:31:36.000Z,31.6
2022-08-12T22:33:54.000Z,35.85
2022-08-12T22:36:20.000Z,35.85
2022-08-12T22:41:48.000Z,29.35
2022-08-12T22:43:39.000Z,29.35
2022-08-12T22:46:05.000Z,29.35
2022-08-12T22:46:15.000Z,27.57
2022-08-12T22:48:30.000Z,27.57
2022-08-12T22:50:56.000Z,27.57
2022-08-12T22:51:06.000Z,30.67
2022-08-12T22:51:15.000Z,33.05
2022-08-12T22:51:22.000Z,37.33
2022-08-12T22:53:21.000Z,37.33
2022-08-12T22:55:58.000Z,37.6
2022-08-12T22:55:58.000Z,37.33
2022-08-12T22:56:09.000Z,33.2
2022-08-12T22:58:14.000Z,34.2
2022-08-12T23:00:40.000Z,30.12
2022-08-12T23:03:06.000Z,31
2022-08-12T23:05:32.000Z,29.82
2022-08-12T23:07:57.000Z,29.42
2022-08-12T23:10:25.000Z,29.15
2022-08-12T23:12:49.000Z,25.08
2022-08-12T23:15:15.000Z,27.15
2022-08-12T23:17:41.000Z,26.7
2022-08-12T23:20:08.000Z,22.83
2022-08-12T23:22:35.000Z,25.05
2022-08-12T23:24:58.000Z,32.4
2022-08-12T23:29:51.000Z,28.03
2022-08-12T23:32:17.000Z,28.03
2022-08-12T23:34:43.000Z,28.03
2022-08-12T23:34:53.000Z,36.4
2022-08-12T23:35:01.000Z,35.85
2022-08-12T23:37:09.000Z,64.72
2022-08-12T23:39:35.000Z,51.3
2022-08-12T23:42:00.000Z,51.3